Time;durP1;ratioP1;P1;durP2;ratioP2;P2;SDS_P1;SDS_P2;PMS_P1;PMS_P2;Temp;Humidity;BMP_temperature;BMP_pressure;BME280_temperature;BME280_humidity;BME280_pressure;Samples;Min_cycle;Max_cycle;Signal;HPM_P1;HPM_P2
2023/03/14 00:02:19;;;;;;;11.05;4.30;;;;;;;4.66;100.00;100851.72;5001301;28;20169;-72
2023/03/14 00:04:44;;;;;;;6.68;3.58;;;;;;;4.52;100.00;100819.19;5001625;28;20183;-72
2023/03/14 00:07:13;;;;;;;9.25;5.20;;;;;;;4.62;100.00;100818.66;4999836;28;20089;-71
2023/03/14 00:09:40;;;;;;;6.88;4.20;;;;;;;5.36;100.00;100963.88;5000901;28;20034;-71
2023/03/14 00:12:07;;;;;;;7.78;3.72;;;;;;;5.35;100.00;100972.53;4998066;28;20108;-70
2023/03/14 00:14:33;;;;;;;8.48;5.40;;;;;;;5.26;100.00;100952.31;4996889;28;20125;-71
2023/03/14 00:16:58;;;;;;;9.65;3.42;;;;;;;5.05;100.00;100923.94;5001023;28;20053;-72
2023/03/14 00:19:24;;;;;;;6.18;3.65;;;;;;;5.33;100.00;100948.19;5000757;28;20565;-72
2023/03/14 00:21:49;;;;;;;6.40;2.67;;;;;;;4.94;100.00;100878.53;5000048;28;20034;-71
2023/03/14 00:24:14;;;;;;;6.25;3.05;;;;;;;5.21;100.00;100925.28;5004192;28;20034;-71
2023/03/14 00:26:40;;;;;;;7.10;3.17;;;;;;;5.12;100.00;100889.47;5000454;28;20112;-71
2023/03/14 00:29:05;;;;;;;9.63;3.33;;;;;;;4.69;100.00;100830.13;5000441;28;20046;-70
2023/03/14 00:31:31;;;;;;;10.73;3.40;;;;;;;5.29;100.00;100936.81;5000226;28;20041;-70
2023/03/14 00:33:56;;;;;;;7.07;3.08;;;;;;;5.36;100.00;100948.28;4996742;28;20046;-73
2023/03/14 00:36:23;;;;;;;5.85;3.95;;;;;;;5.27;100.00;100917.69;5001566;28;20037;-70
2023/03/14 00:38:51;;;;;;;5.72;3.22;;;;;;;4.67;100.00;100813.59;4995733;28;20073;-74
2023/03/14 00:41:19;;;;;;;6.50;3.08;;;;;;;5.31;100.00;100942.94;5000925;28;20133;-70
2023/03/14 00:43:45;;;;;;;5.68;2.88;;;;;;;4.40;100.00;100792.00;5002095;28;20049;-73
2023/03/14 00:46:12;;;;;;;9.68;4.03;;;;;;;5.38;100.00;100936.19;5002136;28;20045;-73
2023/03/14 00:48:38;;;;;;;7.18;3.70;;;;;;;5.36;100.00;100930.06;5001553;28;20498;-72
2023/03/14 00:51:05;;;;;;;10.60;7.25;;;;;;;5.32;100.00;100951.66;5000818;28;20118;-74
2023/03/14 00:53:31;;;;;;;12.00;8.98;;;;;;;5.25;100.00;100933.25;4997095;28;20188;-72
2023/03/14 00:56:02;;;;;;;18.05;10.50;;;;;;;5.49;100.00;100938.28;5000181;28;20046;-73
2023/03/14 00:58:27;;;;;;;13.48;6.65;;;;;;;5.16;100.00;100929.50;5002867;28;20058;-73
2023/03/14 01:00:53;;;;;;;12.18;6.97;;;;;;;5.32;100.00;100918.69;5003091;28;20057;-73
2023/03/14 01:03:18;;;;;;;15.50;9.48;;;;;;;4.46;100.00;100788.72;4996715;28;20049;-73
2023/03/14 01:05:44;;;;;;;15.32;8.63;;;;;;;4.33;100.00;100778.75;4998614;28;20080;-73
2023/03/14 01:08:11;;;;;;;11.35;5.95;;;;;;;4.34;100.00;100775.34;5004641;28;20469;-72
2023/03/14 01:10:40;;;;;;;8.32;5.18;;;;;;;5.23;100.00;100908.03;4998075;28;20057;-71
2023/03/14 01:13:06;;;;;;;12.40;6.80;;;;;;;5.19;100.00;100922.63;5000070;28;20078;-72
2023/03/14 01:15:35;;;;;;;11.43;5.68;;;;;;;5.13;100.00;100911.16;5006986;28;20036;-73
2023/03/14 01:18:01;;;;;;;10.13;6.32;;;;;;;4.37;100.00;100768.50;5000945;28;20056;-72
2023/03/14 01:20:26;;;;;;;18.23;7.45;;;;;;;4.47;100.00;100782.66;5002648;28;20061;-72
2023/03/14 01:22:52;;;;;;;9.65;5.55;;;;;;;4.35;100.00;100764.09;5005250;28;20053;-72
2023/03/14 01:25:18;;;;;;;9.00;4.85;;;;;;;4.23;100.00;100747.31;5001599;28;20733;-72
2023/03/14 01:27:44;;;;;;;14.45;5.28;;;;;;;4.44;100.00;100793.84;5003729;28;20041;-71
2023/03/14 01:30:11;;;;;;;10.13;5.55;;;;;;;4.77;100.00;100907.47;5003860;28;20046;-71
2023/03/14 01:32:37;;;;;;;13.73;5.57;;;;;;;4.64;100.00;100900.16;5004770;28;20046;-70
2023/03/14 01:35:03;;;;;;;12.57;5.85;;;;;;;4.71;100.00;100876.13;5004436;28;20120;-70
2023/03/14 01:37:28;;;;;;;14.57;4.53;;;;;;;4.01;100.00;100743.16;5000122;28;20220;-71
2023/03/14 01:39:54;;;;;;;14.07;5.03;;;;;;;4.88;100.00;100879.22;4997596;28;20034;-72
2023/03/14 01:42:19;;;;;;;22.48;6.15;;;;;;;4.01;100.00;100742.28;5007040;28;20029;-71
2023/03/14 01:44:55;;;;;;;12.45;5.05;;;;;;;4.89;100.00;100887.91;5002889;28;20123;-72
2023/03/14 01:47:22;;;;;;;10.32;5.82;;;;;;;4.15;100.00;100750.53;5003563;28;20053;-73
2023/03/14 01:49:53;;;;;;;12.40;8.45;;;;;;;4.65;100.00;100850.78;4994327;28;20516;-70
2023/03/14 01:52:33;;;;;;;11.93;5.88;;;;;;;4.78;100.00;100895.38;4998844;28;20097;-70
2023/03/14 01:55:04;;;;;;;16.58;4.68;;;;;;;4.34;100.00;100802.19;4999267;28;20042;-71
2023/03/14 01:57:36;;;;;;;10.15;5.07;;;;;;;4.07;100.00;100759.75;5001532;28;20044;-71
2023/03/14 02:00:11;;;;;;;11.85;6.55;;;;;;;4.90;100.00;100882.75;5000725;28;20050;-71
2023/03/14 02:02:39;;;;;;;7.68;4.50;;;;;;;4.12;100.00;100750.41;5001527;28;20069;-71
2023/03/14 02:05:05;;;;;;;8.70;5.00;;;;;;;3.98;100.00;100734.38;5005627;28;20143;-71
2023/03/14 02:07:54;;;;;;;7.25;4.53;;;;;;;4.00;100.00;100736.22;5003628;28;20050;-70
2023/03/14 02:10:24;;;;;;;14.70;5.35;;;;;;;3.99;100.00;100736.16;4992976;28;20156;-70
2023/03/14 02:12:53;;;;;;;11.07;5.78;;;;;;;3.90;100.00;100726.34;5003535;28;20394;-73
2023/03/14 02:15:18;;;;;;;7.35;4.97;;;;;;;4.42;100.00;100836.19;5006075;28;20091;-72
2023/03/14 02:17:45;;;;;;;8.57;5.05;;;;;;;4.41;100.00;100874.31;5001750;28;20050;-72
2023/03/14 02:20:51;;;;;;;11.73;5.93;;;;;;;4.21;100.00;100857.16;4998255;28;20050;-71
2023/03/14 02:23:28;;;;;;;16.27;5.18;;;;;;;4.10;100.00;100850.78;4997607;28;20050;-74
2023/03/14 02:26:00;;;;;;;12.82;4.88;;;;;;;4.51;100.00;100867.69;5004666;28;20804;-69
2023/03/14 02:28:26;;;;;;;10.68;5.82;;;;;;;4.58;100.00;100869.63;5005689;28;20061;-70
2023/03/14 02:30:51;;;;;;;12.38;5.75;;;;;;;4.49;100.00;100868.47;5004582;28;20061;-72
2023/03/14 02:33:20;;;;;;;10.00;5.38;;;;;;;4.23;100.00;100860.72;5010076;28;20054;-74
2023/03/14 02:35:51;;;;;;;13.73;5.70;;;;;;;4.11;100.00;100848.19;4998609;28;20042;-72
2023/03/14 02:38:38;;;;;;;12.10;5.78;;;;;;;4.58;100.00;100886.94;5003210;28;20157;-73
2023/03/14 02:41:04;;;;;;;10.35;5.82;;;;;;;4.32;100.00;100870.53;5007526;28;20402;-72
2023/03/14 02:43:29;;;;;;;8.55;5.20;;;;;;;4.32;100.00;100874.00;5007558;28;20054;-73
2023/03/14 02:45:55;;;;;;;6.95;4.82;;;;;;;4.17;100.00;100837.16;4999633;28;20060;-71
2023/03/14 02:48:41;;;;;;;13.10;5.38;;;;;;;3.48;100.00;100729.31;5006908;28;20140;-73
2023/03/14 02:51:07;;;;;;;6.93;4.30;;;;;;;4.34;100.00;100887.94;5005679;28;20463;-72
2023/03/14 02:53:36;;;;;;;10.77;4.68;;;;;;;4.23;100.00;100891.88;5008137;28;20058;-76
2023/03/14 02:56:03;;;;;;;8.63;4.68;;;;;;;3.76;100.00;100784.72;5007934;28;20038;-72
2023/03/14 02:58:29;;;;;;;9.73;5.18;;;;;;;4.56;100.00;100892.09;4995207;28;20058;-72
2023/03/14 03:00:55;;;;;;;9.38;6.07;;;;;;;4.47;100.00;100893.50;4995192;28;20026;-75
2023/03/14 03:03:21;;;;;;;7.07;4.25;;;;;;;4.46;100.00;100886.56;5006487;28;20033;-70
2023/03/14 03:05:54;;;;;;;13.45;5.25;;;;;;;3.63;100.00;100778.25;5003128;28;20121;-70
2023/03/14 03:08:20;;;;;;;11.93;6.28;;;;;;;4.48;100.00;100884.91;5008314;28;20065;-70
2023/03/14 03:10:46;;;;;;;15.38;7.18;;;;;;;3.76;100.00;100769.16;5001504;28;20080;-71
2023/03/14 03:13:12;;;;;;;14.98;7.50;;;;;;;4.42;100.00;100889.06;5000191;28;20042;-72
2023/03/14 03:15:37;;;;;;;11.07;6.15;;;;;;;4.21;100.00;100834.72;5003446;28;20030;-71
2023/03/14 03:18:03;;;;;;;11.75;7.90;;;;;;;4.41;100.00;100866.50;4997840;28;20113;-76
2023/03/14 03:20:29;;;;;;;10.45;6.65;;;;;;;3.74;100.00;100760.44;5004317;28;20482;-72
2023/03/14 03:22:54;;;;;;;7.38;5.20;;;;;;;3.47;100.00;100732.75;5000510;28;20101;-71
2023/03/14 03:25:20;;;;;;;13.95;6.72;;;;;;;3.64;100.00;100824.13;5006483;28;20489;-71
2023/03/14 03:27:45;;;;;;;24.65;7.00;;;;;;;3.74;100.00;100864.25;5003049;28;20038;-71
2023/03/14 03:30:11;;;;;;;14.05;6.05;;;;;;;3.04;100.00;100707.91;4999803;28;20111;-71
2023/03/14 03:32:37;;;;;;;10.90;5.68;;;;;;;3.73;100.00;100811.47;5002972;28;20046;-72
2023/03/14 03:35:04;;;;;;;11.35;6.43;;;;;;;3.12;100.00;100701.28;5002962;28;20053;-72
2023/03/14 03:37:33;;;;;;;11.45;5.13;;;;;;;3.54;100.00;100784.00;4997936;28;20049;-72
2023/03/14 03:40:00;;;;;;;7.63;3.85;;;;;;;3.54;100.00;100768.44;5001335;28;20045;-72
2023/03/14 03:42:26;;;;;;;7.13;4.50;;;;;;;3.25;100.00;100710.38;4999927;28;20030;-72
2023/03/14 03:44:52;;;;;;;6.32;4.35;;;;;;;3.54;100.00;100755.47;5002911;28;20053;-72
2023/03/14 03:47:17;;;;;;;9.65;4.80;;;;;;;3.84;100.00;100827.41;5000831;28;20085;-72
2023/03/14 03:49:43;;;;;;;5.47;3.30;;;;;;;3.44;100.00;100742.13;5003659;28;20139;-74
2023/03/14 03:52:09;;;;;;;5.45;4.13;;;;;;;3.11;100.00;100702.13;5005854;28;20042;-72
2023/03/14 03:54:35;;;;;;;14.50;4.82;;;;;;;3.76;100.00;100831.44;5000954;28;20034;-73
2023/03/14 03:57:00;;;;;;;10.93;5.13;;;;;;;3.25;100.00;100829.66;5003406;28;20478;-71
2023/03/14 03:59:26;;;;;;;13.60;7.38;;;;;;;3.11;100.00;100842.13;4998790;28;20048;-70
2023/03/14 04:01:51;;;;;;;13.70;6.15;;;;;;;3.04;100.00;100827.16;5000499;28;20394;-72
2023/03/14 04:04:17;;;;;;;13.40;6.45;;;;;;;3.00;100.00;100820.13;5004382;28;20485;-73
2023/03/14 04:06:42;;;;;;;7.60;4.97;;;;;;;2.25;100.00;100695.53;5005184;28;20172;-73
2023/03/14 04:09:09;;;;;;;12.00;6.65;;;;;;;2.91;100.00;100812.00;5000429;28;20589;-73
2023/03/14 04:11:35;;;;;;;9.35;5.95;;;;;;;1.33;100.00;100541.94;5010885;28;20119;-71
2023/03/14 04:14:00;;;;;;;10.80;6.43;;;;;;;2.74;100.00;100731.03;4996943;28;20391;-73
2023/03/14 04:16:26;;;;;;;10.77;5.13;;;;;;;3.23;100.00;100799.31;5000939;28;20057;-72
2023/03/14 04:18:52;;;;;;;12.68;6.72;;;;;;;3.61;100.00;100842.19;5002093;28;20045;-72
2023/03/14 04:21:18;;;;;;;14.55;5.65;;;;;;;3.35;100.00;100795.44;5001435;28;20107;-72
2023/03/14 04:23:44;;;;;;;13.27;6.65;;;;;;;3.25;100.00;100819.28;4999956;28;20509;-70
2023/03/14 04:26:10;;;;;;;12.45;8.10;;;;;;;2.30;100.00;100676.75;5004011;28;20560;-72
2023/03/14 04:28:36;;;;;;;26.15;9.52;;;;;;;3.08;100.00;100836.81;4999174;28;20058;-71
2023/03/14 04:31:13;;;;;;;15.18;8.88;;;;;;;3.06;100.00;100814.25;5001814;28;20438;-72
2023/03/14 04:33:39;;;;;;;12.88;8.50;;;;;;;3.27;100.00;100838.38;5002947;28;20438;-72
2023/03/14 04:36:06;;;;;;;14.48;9.52;;;;;;;2.48;100.00;100719.69;5000659;28;20057;-71
2023/03/14 04:38:32;;;;;;;17.38;11.32;;;;;;;3.30;100.00;100838.50;4999186;28;20132;-71
2023/03/14 04:40:58;;;;;;;16.90;8.93;;;;;;;2.54;100.00;100709.56;5003203;28;20053;-70
2023/03/14 04:43:25;;;;;;;15.13;8.07;;;;;;;2.96;100.00;100813.03;4997535;28;20902;-70
2023/03/14 04:45:53;;;;;;;32.65;16.52;;;;;;;3.00;100.00;100826.97;5003709;28;20038;-73
2023/03/14 04:48:18;;;;;;;31.15;16.52;;;;;;;2.23;100.00;100716.19;5003167;28;20255;-74
2023/03/14 04:50:46;;;;;;;19.55;11.02;;;;;;;1.83;100.00;100682.69;4997649;28;20137;-72
2023/03/14 04:53:11;;;;;;;13.27;8.00;;;;;;;1.42;100.00;100684.50;5000126;28;20077;-70
2023/03/14 04:55:37;;;;;;;25.17;10.63;;;;;;;1.27;100.00;100689.91;4994490;28;21096;-70
2023/03/14 04:58:02;;;;;;;22.05;8.90;;;;;;;1.47;100.00;100707.16;5005490;28;20058;-71
2023/03/14 05:00:28;;;;;;;18.08;10.40;;;;;;;2.26;100.00;100825.03;4996524;28;20042;-74
2023/03/14 05:02:53;;;;;;;24.08;9.05;;;;;;;1.76;100.00;100764.34;4999422;28;20046;-72
2023/03/14 05:05:19;;;;;;;19.85;10.98;;;;;;;1.14;100.00;100647.16;4997697;28;20483;-72
2023/03/14 05:07:44;;;;;;;31.05;11.98;;;;;;;1.40;100.00;100662.84;5000242;28;20042;-74
2023/03/14 05:10:10;;;;;;;18.85;10.27;;;;;;;1.55;100.00;100689.34;4998822;28;20053;-76
2023/03/14 05:12:36;;;;;;;24.23;10.73;;;;;;;0.89;100.00;100543.59;5001415;28;20041;-73
2023/03/14 05:15:01;;;;;;;23.38;10.65;;;;;;;2.29;100.00;100799.28;5002451;28;20042;-71
2023/03/14 05:17:27;;;;;;;19.00;11.02;;;;;;;1.80;100.00;100815.41;5002176;28;20060;-70
2023/03/14 05:19:52;;;;;;;14.98;11.30;;;;;;;0.76;100.00;100648.13;5001421;28;20117;-72
2023/03/14 05:22:18;;;;;;;21.27;10.50;;;;;;;1.04;100.00;100678.59;4997978;28;20121;-72
2023/03/14 05:24:43;;;;;;;21.65;12.63;;;;;;;1.54;100.00;100803.94;4997933;28;20034;-73
2023/03/14 05:27:09;;;;;;;35.67;9.68;;;;;;;1.60;100.00;100811.09;4999473;28;20044;-71
2023/03/14 05:29:34;;;;;;;19.33;10.93;;;;;;;1.55;100.00;100791.91;4995735;28;20045;-71
2023/03/14 05:32:00;;;;;;;19.98;8.55;;;;;;;1.94;100.00;100809.91;5002596;28;20073;-73
2023/03/14 05:34:26;;;;;;;16.48;7.75;;;;;;;1.19;100.00;100718.00;5001150;28;20045;-71
2023/03/14 05:36:51;;;;;;;16.45;10.73;;;;;;;0.63;100.00;100588.22;5002202;28;20033;-72
2023/03/14 05:39:18;;;;;;;14.63;8.45;;;;;;;1.29;100.00;100708.97;5003311;28;20646;-71
2023/03/14 05:41:43;;;;;;;25.85;9.23;;;;;;;2.16;100.00;100832.38;5002669;28;20045;-70
2023/03/14 05:44:09;;;;;;;24.02;9.85;;;;;;;1.44;100.00;100691.47;4998695;28;20045;-72
2023/03/14 05:46:34;;;;;;;21.02;9.05;;;;;;;1.54;100.00;100691.84;4992201;28;20046;-72
2023/03/14 05:49:00;;;;;;;13.70;9.23;;;;;;;2.39;100.00;100825.50;4994214;28;20042;-70
2023/03/14 05:51:25;;;;;;;19.58;9.63;;;;;;;2.31;100.00;100813.16;4996133;28;20379;-71
2023/03/14 05:53:51;;;;;;;13.07;7.82;;;;;;;1.79;100.00;100696.31;4994530;28;20053;-73
2023/03/14 05:56:17;;;;;;;15.23;8.00;;;;;;;1.88;100.00;100702.75;4996046;28;20038;-73
2023/03/14 05:58:43;;;;;;;19.83;9.23;;;;;;;2.41;100.00;100775.56;5009541;28;20128;-72
2023/03/14 06:01:09;;;;;;;16.10;9.93;;;;;;;1.79;100.00;100670.47;5000613;28;20056;-70
2023/03/14 06:03:35;;;;;;;18.88;9.45;;;;;;;2.87;100.00;100836.03;5000866;28;20370;-73
2023/03/14 06:06:00;;;;;;;31.17;12.85;;;;;;;2.35;100.00;100738.19;4998289;28;20485;-73
2023/03/14 06:08:26;;;;;;;19.17;10.82;;;;;;;2.17;100.00;100697.81;5000099;28;20105;-75
2023/03/14 06:10:52;;;;;;;26.80;12.82;;;;;;;2.23;100.00;100692.00;4996584;28;20065;-72
2023/03/14 06:13:17;;;;;;;17.90;8.27;;;;;;;2.92;100.00;100808.56;4999281;28;20046;-72
2023/03/14 06:15:43;;;;;;;16.92;9.75;;;;;;;3.12;100.00;100830.94;4997226;28;20061;-70
2023/03/14 06:18:09;;;;;;;25.20;12.80;;;;;;;2.47;100.00;100682.56;4990618;28;20558;-72
2023/03/14 06:20:40;;;;;;;17.65;9.10;;;;;;;3.18;100.00;100786.19;4998186;28;20042;-72
2023/03/14 06:23:07;;;;;;;16.92;9.15;;;;;;;3.65;100.00;100838.84;5002564;28;20848;-70
2023/03/14 06:25:33;;;;;;;18.17;11.13;;;;;;;3.58;100.00;100827.41;5001126;28;20049;-72
2023/03/14 06:27:59;;;;;;;21.33;10.52;;;;;;;2.95;100.00;100682.56;5001538;28;20041;-71
2023/03/14 06:30:24;;;;;;;18.83;9.60;;;;;;;3.38;100.00;100707.38;5002482;28;20026;-70
2023/03/14 06:32:50;;;;;;;22.27;8.88;;;;;;;4.09;100.00;100828.22;4996036;28;20105;-72
2023/03/14 06:35:15;;;;;;;23.17;10.02;;;;;;;4.08;100.00;100835.13;5000606;28;20501;-71
2023/03/14 06:37:41;;;;;;;17.35;9.50;;;;;;;4.02;100.00;100833.19;4995713;28;20661;-71
2023/03/14 06:40:08;;;;;;;13.77;8.00;;;;;;;3.66;100.00;100752.41;4997963;28;20132;-71
2023/03/14 06:42:33;;;;;;;41.05;11.20;;;;;;;4.35;100.00;100821.25;5001168;28;20506;-72
2023/03/14 06:44:58;;;;;;;17.10;8.60;;;;;;;3.51;100.00;100694.81;4996926;28;20049;-71
2023/03/14 06:47:24;;;;;;;15.75;8.35;;;;;;;4.30;100.00;100826.31;4997174;28;20366;-70
2023/03/14 06:49:49;;;;;;;16.30;9.13;;;;;;;4.22;100.00;100805.28;5000385;28;20049;-70
2023/03/14 06:52:15;;;;;;;32.33;9.20;;;;;;;4.13;100.00;100763.44;5001843;28;20057;-70
2023/03/14 06:54:40;;;;;;;19.38;7.65;;;;;;;4.38;100.00;100809.25;5001369;28;20049;-70
2023/03/14 06:57:06;;;;;;;12.93;7.13;;;;;;;4.11;100.00;100689.81;5001731;28;20049;-71
2023/03/14 06:59:31;;;;;;;20.83;7.68;;;;;;;4.68;100.00;100771.16;5000663;28;20086;-70
2023/03/14 07:01:57;;;;;;;13.80;7.13;;;;;;;4.17;100.00;100684.81;4999508;28;20410;-70
2023/03/14 07:04:22;;;;;;;11.38;6.78;;;;;;;4.21;100.00;100675.38;5002406;28;20049;-71
2023/03/14 07:06:47;;;;;;;11.43;5.28;;;;;;;3.98;100.00;100644.41;5001951;28;20457;-71
2023/03/14 07:09:14;;;;;;;10.77;6.45;;;;;;;5.17;100.00;100819.38;5004046;28;20763;-73
2023/03/14 07:11:39;;;;;;;14.90;8.32;;;;;;;4.52;99.84;100684.97;4996948;28;20142;-71
2023/03/14 07:14:05;;;;;;;19.60;8.95;;;;;;;4.58;97.69;100710.22;4998918;28;20798;-70
2023/03/14 07:16:32;;;;;;;18.58;7.80;;;;;;;4.93;97.94;100708.63;5003128;28;20438;-71
2023/03/14 07:18:59;;;;;;;16.02;9.93;;;;;;;5.45;94.01;100782.00;5000946;28;20090;-71
2023/03/14 07:21:25;;;;;;;18.30;8.98;;;;;;;4.86;90.65;100689.38;5004900;28;20121;-70
2023/03/14 07:23:50;;;;;;;17.67;9.18;;;;;;;4.97;88.56;100665.41;4999623;28;20042;-71
2023/03/14 07:26:16;;;;;;;21.02;11.07;;;;;;;5.78;89.78;100786.31;5005554;28;20042;-69
2023/03/14 07:28:41;;;;;;;18.35;9.52;;;;;;;5.80;87.61;100782.03;5002306;28;20045;-73
2023/03/14 07:31:07;;;;;;;17.60;10.55;;;;;;;5.95;86.13;100805.91;4997823;28;20474;-72
2023/03/14 07:33:33;;;;;;;16.88;9.50;;;;;;;5.33;82.71;100681.06;5003461;28;20425;-73
2023/03/14 07:35:59;;;;;;;24.83;9.73;;;;;;;5.50;82.18;100678.88;5003717;28;20054;-71
2023/03/14 07:38:24;;;;;;;16.90;10.63;;;;;;;5.50;76.94;100669.38;5001900;28;20057;-71
2023/03/14 07:40:50;;;;;;;17.02;9.70;;;;;;;6.04;72.95;100737.50;5000163;28;20140;-73
2023/03/14 07:43:15;;;;;;;21.85;10.18;;;;;;;6.40;73.94;100814.78;4998368;28;20116;-71
2023/03/14 07:45:41;;;;;;;20.83;10.85;;;;;;;6.58;73.00;100777.81;4998330;28;20117;-69
2023/03/14 07:48:06;;;;;;;23.67;11.80;;;;;;;6.80;72.15;100800.03;4996426;28;20054;-72
2023/03/14 07:50:32;;;;;;;17.50;11.57;;;;;;;6.31;70.43;100691.22;5004029;28;20143;-71
2023/03/14 07:52:57;;;;;;;16.15;10.98;;;;;;;6.88;68.04;100783.72;5007402;28;20146;-71
2023/03/14 07:55:23;;;;;;;11.63;7.15;;;;;;;6.58;64.66;100726.56;4999918;28;20046;-71
2023/03/14 07:57:48;;;;;;;14.35;9.65;;;;;;;6.45;66.79;100662.88;5000003;28;20038;-72
2023/03/14 08:00:14;;;;;;;33.10;11.32;;;;;;;7.19;65.48;100780.00;5000955;28;20473;-73
2023/03/14 08:02:40;;;;;;;14.48;8.13;;;;;;;6.57;65.46;100663.97;5003831;28;20090;-72
2023/03/14 08:05:07;;;;;;;18.15;10.68;;;;;;;7.25;64.07;100763.56;5007467;28;20069;-70
2023/03/14 08:07:32;;;;;;;11.38;6.93;;;;;;;6.64;64.55;100648.47;5007276;28;20531;-71
2023/03/14 08:09:58;;;;;;;24.40;9.05;;;;;;;7.44;65.33;100759.56;4998931;28;20057;-72
2023/03/14 08:12:23;;;;;;;11.45;6.93;;;;;;;6.97;62.74;100669.09;5001615;28;20056;-71
2023/03/14 08:14:48;;;;;;;19.85;9.88;;;;;;;6.75;60.00;100636.53;4998428;28;20042;-71
2023/03/14 08:17:14;;;;;;;10.82;6.75;;;;;;;7.10;59.03;100643.25;5006834;28;20457;-72
2023/03/14 08:19:41;;;;;;;16.02;10.77;;;;;;;7.72;58.43;100742.63;5006834;28;20044;-72
2023/03/14 08:22:07;;;;;;;16.75;10.40;;;;;;;7.44;57.92;100678.63;5005285;28;20125;-71
2023/03/14 08:24:33;;;;;;;19.73;9.88;;;;;;;7.95;58.43;100710.81;4999873;28;20383;-73
2023/03/14 08:26:58;;;;;;;18.88;9.82;;;;;;;8.03;57.20;100749.28;5000445;28;20039;-72
2023/03/14 08:29:24;;;;;;;12.05;6.13;;;;;;;8.00;56.41;100725.69;4996645;28;20094;-71
2023/03/14 08:31:49;;;;;;;12.85;8.55;;;;;;;7.94;57.36;100722.13;5002728;28;20048;-71
2023/03/14 08:34:15;;;;;;;17.83;9.80;;;;;;;7.63;56.51;100642.38;5000385;28;20128;-74
2023/03/14 08:36:41;;;;;;;13.43;8.60;;;;;;;8.27;55.68;100726.09;5002784;28;20475;-72
2023/03/14 08:39:07;;;;;;;14.88;10.35;;;;;;;7.66;54.84;100606.75;5001656;28;20052;-72
2023/03/14 08:41:39;;;;;;;13.18;9.40;;;;;;;8.41;53.94;100711.50;4995679;28;20058;-71
2023/03/14 08:44:06;;;;;;;19.25;10.00;;;;;;;8.55;53.76;100714.31;5001339;28;20060;-70
2023/03/14 08:46:32;;;;;;;15.15;9.20;;;;;;;8.69;51.22;100698.78;5005858;28;20045;-69
2023/03/14 08:48:57;;;;;;;14.30;7.93;;;;;;;8.24;51.48;100599.72;5007170;28;20049;-71
2023/03/14 08:51:23;;;;;;;23.42;10.05;;;;;;;8.32;51.12;100560.59;5002674;28;20042;-72
2023/03/14 08:53:48;;;;;;;13.88;8.60;;;;;;;9.04;50.91;100707.91;5001989;28;20025;-72
2023/03/14 08:56:14;;;;;;;24.98;9.48;;;;;;;8.37;50.54;100568.47;5001340;28;20047;-70
2023/03/14 08:58:41;;;;;;;24.02;9.30;;;;;;;8.57;50.09;100572.25;5006015;28;20386;-70
2023/03/14 09:01:09;;;;;;;19.45;9.23;;;;;;;9.49;49.90;100687.41;5003851;28;20148;-71
2023/03/14 09:03:35;;;;;;;16.92;9.05;;;;;;;9.21;49.22;100550.13;5006835;28;20049;-70
2023/03/14 09:06:08;;;;;;;17.08;7.47;;;;;;;10.18;48.90;100668.69;4998890;28;20046;-70
2023/03/14 09:08:35;;;;;;;14.55;5.78;;;;;;;9.75;47.40;100566.22;4996483;28;20379;-71
2023/03/14 09:11:01;;;;;;;12.15;6.43;;;;;;;10.46;47.14;100659.25;4996003;28;20052;-73
2023/03/14 09:13:27;;;;;;;12.48;5.43;;;;;;;9.79;46.01;100552.28;5000653;28;20053;-70
2023/03/14 09:15:54;;;;;;;9.95;5.72;;;;;;;10.05;45.94;100542.78;5005444;28;20050;-71
2023/03/14 09:18:20;;;;;;;9.95;6.20;;;;;;;10.72;44.64;100655.00;5005918;28;20034;-70
2023/03/14 09:20:46;;;;;;;13.55;6.30;;;;;;;10.21;43.29;100640.75;4998992;28;20041;-72
2023/03/14 09:23:11;;;;;;;12.52;6.32;;;;;;;10.17;42.14;100627.59;5000202;28;20403;-70
2023/03/14 09:25:37;;;;;;;12.07;5.70;;;;;;;9.60;42.90;100539.06;5006515;28;20056;-71
2023/03/14 09:28:02;;;;;;;14.18;7.13;;;;;;;10.54;44.42;100645.28;5004669;28;21052;-71
2023/03/14 09:30:28;;;;;;;13.52;6.75;;;;;;;10.04;44.21;100522.66;5005396;28;20046;-71
2023/03/14 09:32:53;;;;;;;12.95;6.72;;;;;;;10.07;44.40;100609.22;5000756;28;20050;-70
2023/03/14 09:35:19;;;;;;;15.82;7.30;;;;;;;9.63;44.43;100538.19;4998663;28;20042;-72
2023/03/14 09:37:44;;;;;;;11.40;5.88;;;;;;;10.09;42.18;100554.13;4997350;28;20042;-70
2023/03/14 09:40:16;;;;;;;16.58;6.75;;;;;;;10.61;40.54;100603.34;5005695;28;20073;-70
2023/03/14 09:42:42;;;;;;;11.15;6.38;;;;;;;9.91;39.82;100487.66;5006810;28;20033;-72
2023/03/14 09:45:17;;;;;;;10.60;5.20;;;;;;;11.01;38.02;100606.06;5003349;28;20042;-69
2023/03/14 09:47:44;;;;;;;14.55;6.72;;;;;;;11.24;38.82;100579.78;5001559;28;20038;-71
2023/03/14 09:50:19;;;;;;;12.57;5.90;;;;;;;11.00;37.34;100502.75;5001330;28;20043;-72
2023/03/14 09:53:14;;;;;;;10.05;5.28;;;;;;;11.80;36.68;100602.53;4996838;28;20514;-71
2023/03/14 09:55:41;;;;;;;12.25;5.90;;;;;;;11.40;37.88;100522.00;4998691;28;20141;-71
2023/03/14 09:58:13;;;;;;;11.60;6.18;;;;;;;11.37;37.52;100494.84;5006132;28;20052;-70
2023/03/14 10:00:39;;;;;;;11.15;5.13;;;;;;;11.96;36.18;100570.09;4999117;28;20112;-71
2023/03/14 10:03:13;;;;;;;12.38;5.15;;;;;;;11.92;35.43;100588.50;4996754;28;20124;-71
2023/03/14 10:05:41;;;;;;;8.35;4.60;;;;;;;11.20;35.39;100479.97;4993194;28;20499;-72
2023/03/14 10:08:10;;;;;;;8.65;5.53;;;;;;;11.65;36.02;100463.22;4997148;28;20054;-72
2023/03/14 10:10:36;;;;;;;12.98;5.03;;;;;;;11.69;34.65;100580.63;4995421;28;20049;-70
2023/03/14 10:13:18;;;;;;;10.15;4.50;;;;;;;12.27;34.36;100545.38;4997660;28;20065;-71
2023/03/14 10:16:00;;;;;;;10.02;4.38;;;;;;;12.42;34.96;100559.34;4993927;28;20121;-70
2023/03/14 10:18:29;;;;;;;17.67;6.65;;;;;;;12.37;33.73;100553.25;5002682;28;20034;-71
2023/03/14 10:21:05;;;;;;;13.00;5.22;;;;;;;12.16;34.25;100511.25;4999433;28;20099;-69
2023/03/14 10:23:33;;;;;;;7.05;3.92;;;;;;;11.32;34.85;100431.78;4997099;28;20046;-70
2023/03/14 10:26:07;;;;;;;11.13;4.40;;;;;;;11.73;34.53;100415.00;4996705;28;20054;-71
2023/03/14 10:28:41;;;;;;;;;;;;;;;12.97;33.71;100525.63;5005608;28;20057;-70
2023/03/14 10:31:07;;;;;;;10.25;3.80;;;;;;;13.15;32.71;100524.63;4993456;28;20523;-71
2023/03/14 10:33:35;;;;;;;5.70;3.28;;;;;;;12.52;31.96;100409.28;4998842;28;20050;-72
2023/03/14 10:36:03;;;;;;;7.78;4.28;;;;;;;12.44;32.25;100411.97;5001426;28;20120;-71
2023/03/14 10:38:32;;;;;;;7.43;3.83;;;;;;;12.56;31.62;100388.19;5005129;28;20054;-72
2023/03/14 10:40:59;;;;;;;17.63;6.28;;;;;;;12.83;32.47;100387.06;5001826;28;20737;-71
2023/03/14 10:43:38;;;;;;;8.82;4.38;;;;;;;13.46;31.08;100468.13;5004575;28;20053;-70
2023/03/14 10:46:13;;;;;;;7.47;2.83;;;;;;;14.38;30.56;100476.63;4995756;28;20137;-72
2023/03/14 10:48:41;;;;;;;32.10;4.82;;;;;;;13.94;29.61;100365.53;4999204;28;20081;-70
2023/03/14 10:51:17;;;;;;;5.65;2.30;;;;;;;14.99;30.12;100467.75;5005888;28;20041;-70
2023/03/14 10:53:48;;;;;;;6.18;3.20;;;;;;;15.20;29.97;100449.78;5003172;28;20557;-72
2023/03/14 10:56:22;;;;;;;3.72;2.22;;;;;;;14.96;30.12;100369.16;5002507;28;20088;-70
2023/03/14 10:58:57;;;;;;;5.28;2.47;;;;;;;15.18;30.18;100361.69;5005303;28;20058;-72
2023/03/14 11:01:37;;;;;;;7.55;3.00;;;;;;;15.25;28.66;100450.56;5007161;28;20046;-72
2023/03/14 11:04:21;;;;;;;6.13;2.20;;;;;;;13.91;29.65;100439.44;5007519;28;20042;-71
2023/03/14 11:07:12;;;;;;;6.75;2.25;;;;;;;14.90;29.12;100432.69;4997003;28;20034;-70
2023/03/14 11:09:46;;;;;;;6.47;3.05;;;;;;;15.51;30.41;100431.53;5006427;28;20790;-71
2023/03/14 11:12:27;;;;;;;5.85;3.00;;;;;;;14.55;30.03;100440.31;5000780;28;20102;-71
2023/03/14 11:15:02;;;;;;;4.72;2.38;;;;;;;15.66;30.36;100405.69;5002829;28;20168;-71
2023/03/14 11:17:27;;;;;;;6.97;2.70;;;;;;;16.54;29.38;100407.25;5001862;28;20046;-70
2023/03/14 11:20:17;;;;;;;5.22;2.28;;;;;;;16.63;27.63;100394.63;5006040;28;20738;-70
2023/03/14 11:22:50;;;;;;;3.67;1.92;;;;;;;16.74;28.24;100386.41;5003994;28;20068;-70